^^
Meteo Knjazevac Station Historical Data
Daily Summary for April 13, 2021 Units:  Both    English   Metric
Daily Weekly Monthly Yearly Custom
  High: Low: Average:
Temperature: 30.9 °F /  -0.6 °C 30.6 °F /  -0.8 °C 30.7 °F /  -0.7 °C
Dew Point: 30.7 °F /  -0.7 °C 30.2 °F /  -1 °C 30.5 °F /  -0.8 °C
Humidity: 99% 98% 99%
Wind Speed: 5mph /  8km/h - 2mph /  3.2km/h
Wind Gust: 12mph /  19.3km/h - -
Wind- - SW
Pressure: 29.91 in /  1012.8 hPa 29.90 in /  1012.4 hPa -
Precipitation: 0.00 in /  0 mm    
Historical Graphs
 
 
Tabular Data for April 13, 2021
Time Temperature Dew Point Pressure Wind Wind Speed Wind Gust Humidity Rainfall Rate (Hourly) solar Conditions
00:00 30.9 °F /  -0.6 °C 30.7 °F /  -0.7 °C 29.91in /  1012.8hPa SW 3mph /  4.8km/h 7mph /  11.3km/h 99% 0.00in /  0mm 0 W/m2
00:10 30.9 °F /  -0.6 °C 30.7 °F /  -0.7 °C 29.91in /  1012.8hPa SW 2mph /  3.2km/h 6mph /  9.7km/h 99% 0.00in /  0mm 0 W/m2
00:20 30.9 °F /  -0.6 °C 30.7 °F /  -0.7 °C 29.91in /  1012.8hPa SW 1mph /  1.6km/h 3mph /  4.8km/h 99% 0.00in /  0mm 0 W/m2
00:30 30.9 °F /  -0.6 °C 30.7 °F /  -0.7 °C 29.91in /  1012.8hPa South 2mph /  3.2km/h 5mph /  8km/h 99% 0.00in /  0mm 0 W/m2
00:40 30.9 °F /  -0.6 °C 30.7 °F /  -0.7 °C 29.91in /  1012.8hPa SW 3mph /  4.8km/h 5mph /  8km/h 99% 0.00in /  0mm 0 W/m2
00:50 30.9 °F /  -0.6 °C 30.7 °F /  -0.7 °C 29.91in /  1012.8hPa SW 5mph /  8km/h 12mph /  19.3km/h 99% 0.00in /  0mm 0 W/m2
01:00 30.7 °F /  -0.7 °C 30.5 °F /  -0.8 °C 29.91in /  1012.8hPa SW 5mph /  8km/h 12mph /  19.3km/h 99% 0.00in /  0mm 0 W/m2
01:10 30.7 °F /  -0.7 °C 30.5 °F /  -0.8 °C 29.91in /  1012.8hPa SW 2mph /  3.2km/h 6mph /  9.7km/h 99% 0.00in /  0mm 0 W/m2
01:20 30.7 °F /  -0.7 °C 30.5 °F /  -0.8 °C 29.91in /  1012.8hPa SSW 2mph /  3.2km/h 6mph /  9.7km/h 99% 0.00in /  0mm 0 W/m2
01:30 30.7 °F /  -0.7 °C 30.5 °F /  -0.8 °C 29.91in /  1012.8hPa SW 2mph /  3.2km/h 5mph /  8km/h 99% 0.00in /  0mm 0 W/m2
01:40 30.7 °F /  -0.7 °C 30.5 °F /  -0.8 °C 29.91in /  1012.8hPa SSW 1mph /  1.6km/h 4mph /  6.4km/h 99% 0.00in /  0mm 0 W/m2
01:50 30.6 °F /  -0.8 °C 30.4 °F /  -0.9 °C 29.91in /  1012.8hPa WSW 1mph /  1.6km/h 3mph /  4.8km/h 99% 0.00in /  0mm 0 W/m2
02:00 30.7 °F /  -0.7 °C 30.5 °F /  -0.8 °C 29.91in /  1012.8hPa WSW 1mph /  1.6km/h 4mph /  6.4km/h 99% 0.00in /  0mm 0 W/m2
02:10 30.7 °F /  -0.7 °C 30.5 °F /  -0.8 °C 29.91in /  1012.8hPa SW 2mph /  3.2km/h 6mph /  9.7km/h 99% 0.00in /  0mm 0 W/m2
02:20 30.7 °F /  -0.7 °C 30.5 °F /  -0.8 °C 29.91in /  1012.8hPa SSW 1mph /  1.6km/h 5mph /  8km/h 99% 0.00in /  0mm 0 W/m2
02:30 30.7 °F /  -0.7 °C 30.5 °F /  -0.8 °C 29.91in /  1012.8hPa SSW 2mph /  3.2km/h 5mph /  8km/h 99% 0.00in /  0mm 0 W/m2
02:40 30.7 °F /  -0.7 °C 30.5 °F /  -0.8 °C 29.91in /  1012.8hPa SW 2mph /  3.2km/h 5mph /  8km/h 99% 0.00in /  0mm 0 W/m2
02:50 30.7 °F /  -0.7 °C 30.5 °F /  -0.8 °C 29.91in /  1012.8hPa SW 1mph /  1.6km/h 3mph /  4.8km/h 99% 0.00in /  0mm 0 W/m2
03:00 30.7 °F /  -0.7 °C 30.5 °F /  -0.8 °C 29.91in /  1012.8hPa SW 2mph /  3.2km/h 4mph /  6.4km/h 99% 0.00in /  0mm 0 W/m2
03:10 30.7 °F /  -0.7 °C 30.5 °F /  -0.8 °C 29.91in /  1012.8hPa WSW 1mph /  1.6km/h 4mph /  6.4km/h 99% 0.00in /  0mm 0 W/m2
03:20 30.7 °F /  -0.7 °C 30.5 °F /  -0.8 °C 29.91in /  1012.8hPa WSW 3mph /  4.8km/h 6mph /  9.7km/h 99% 0.00in /  0mm 0 W/m2
03:30 30.7 °F /  -0.7 °C 30.5 °F /  -0.8 °C 29.90in /  1012.4hPa SSW 2mph /  3.2km/h 7mph /  11.3km/h 99% 0.00in /  0mm 0 W/m2
03:40 30.7 °F /  -0.7 °C 30.5 °F /  -0.8 °C 29.91in /  1012.8hPa SW 1mph /  1.6km/h 5mph /  8km/h 99% 0.00in /  0mm 0 W/m2
03:50 30.7 °F /  -0.7 °C 30.5 °F /  -0.8 °C 29.91in /  1012.8hPa SSW 2mph /  3.2km/h 4mph /  6.4km/h 99% 0.00in /  0mm 0 W/m2
04:00 30.7 °F /  -0.7 °C 30.5 °F /  -0.8 °C 29.91in /  1012.8hPa SW 2mph /  3.2km/h 7mph /  11.3km/h 99% 0.00in /  0mm 0 W/m2
04:10 30.9 °F /  -0.6 °C 30.7 °F /  -0.7 °C 29.91in /  1012.8hPa SW 3mph /  4.8km/h 8mph /  12.9km/h 99% 0.00in /  0mm 0 W/m2
04:20 30.7 °F /  -0.7 °C 30.2 °F /  -1 °C 29.90in /  1012.4hPa SW 3mph /  4.8km/h 7mph /  11.3km/h 98% 0.00in /  0mm 0 W/m2
04:30 30.7 °F /  -0.7 °C 30.2 °F /  -1 °C 29.91in /  1012.8hPa SW 3mph /  4.8km/h 8mph /  12.9km/h 98% 0.00in /  0mm 0 W/m2
04:40 30.9 °F /  -0.6 °C 30.4 °F /  -0.9 °C 29.91in /  1012.8hPa WSW 3mph /  4.8km/h 9mph /  14.5km/h 98% 0.00in /  0mm 0 W/m2
04:50 30.7 °F /  -0.7 °C 30.2 °F /  -1 °C 29.91in /  1012.8hPa WSW 1mph /  1.6km/h 6mph /  9.7km/h 98% 0.00in /  0mm 0 W/m2
05:00 30.9 °F /  -0.6 °C 30.4 °F /  -0.9 °C 29.91in /  1012.8hPa SW 1mph /  1.6km/h 7mph /  11.3km/h 98% 0.00in /  0mm 0 W/m2
05:10 30.7 °F /  -0.7 °C 30.2 °F /  -1 °C 29.91in /  1012.8hPa SW 1mph /  1.6km/h 3mph /  4.8km/h 98% 0.00in /  0mm 0 W/m2
05:20 30.7 °F /  -0.7 °C 30.2 °F /  -1 °C 29.91in /  1012.8hPa SW 2mph /  3.2km/h 4mph /  6.4km/h 98% 0.00in /  0mm 0 W/m2
05:30 30.7 °F /  -0.7 °C 30.2 °F /  -1 °C 29.90in /  1012.4hPa Calm   5mph /  8km/h 98% 0.00in /  0mm 0 W/m2
05:40 30.7 °F /  -0.7 °C 30.2 °F /  -1 °C 29.91in /  1012.8hPa South 1mph /  1.6km/h 5mph /  8km/h 98% 0.00in /  0mm 0 W/m2
05:50 30.7 °F /  -0.7 °C 30.5 °F /  -0.8 °C 29.90in /  1012.4hPa SSE 1mph /  1.6km/h 5mph /  8km/h 99% 0.00in /  0mm 0 W/m2
06:00 30.7 °F /  -0.7 °C 30.5 °F /  -0.8 °C 29.90in /  1012.4hPa SSE 3mph /  4.8km/h 11mph /  17.7km/h 99% 0.00in /  0mm 0 W/m2
06:10 30.7 °F /  -0.7 °C 30.5 °F /  -0.8 °C 29.90in /  1012.4hPa SSW 2mph /  3.2km/h 6mph /  9.7km/h 99% 0.00in /  0mm 0 W/m2
Knjazevac, Serbia
Compliments of Weather Underground - 2 mb